createdAt,value
2019-02-28T00:00:23.715Z,14.55
2019-02-28T00:02:53.847Z,16.02
2019-02-28T00:05:21.235Z,15.03
2019-02-28T00:07:50.511Z,15.28
2019-02-28T00:10:19.223Z,14.70
2019-02-28T00:12:48.564Z,15.08
2019-02-28T00:15:16.390Z,15.63
2019-02-28T00:17:45.892Z,15.50
2019-02-28T00:20:14.369Z,15.58
2019-02-28T00:22:48.339Z,14.80
2019-02-28T00:25:11.855Z,13.65
2019-02-28T00:27:40.327Z,14.43
2019-02-28T00:30:08.859Z,14.68
2019-02-28T00:32:41.474Z,14.03
2019-02-28T00:35:12.800Z,15.50
2019-02-28T00:37:39.171Z,14.63
2019-02-28T00:40:07.733Z,15.05
2019-02-28T00:42:36.405Z,15.68
2019-02-28T00:45:05.323Z,16.82
2019-02-28T00:47:33.802Z,14.05
2019-02-28T00:50:02.294Z,14.60
2019-02-28T00:52:32.096Z,16.07
2019-02-28T00:54:59.832Z,15.48
2019-02-28T00:57:28.343Z,15.63
2019-02-28T00:59:56.827Z,15.63
2019-02-28T01:02:25.593Z,15.55
2019-02-28T01:04:54.369Z,14.38
2019-02-28T01:07:22.899Z,15.60
2019-02-28T01:09:52.369Z,16.10
2019-02-28T01:12:21.162Z,13.85
2019-02-28T01:14:49.567Z,15.38
2019-02-28T01:17:18.423Z,14.50
2019-02-28T01:19:47.301Z,15.30
2019-02-28T01:22:17.303Z,14.27
2019-02-28T01:24:45.830Z,14.30
2019-02-28T01:27:14.299Z,14.45
2019-02-28T01:29:44.740Z,14.20
2019-02-28T01:32:17.512Z,14.97
2019-02-28T01:34:46.602Z,18.27
2019-02-28T01:37:15.079Z,15.45
2019-02-28T01:39:43.577Z,14.75
2019-02-28T01:42:12.430Z,14.13
2019-02-28T01:44:40.934Z,14.23
2019-02-28T01:47:09.415Z,13.83
2019-02-28T01:49:38.300Z,14.07
2019-02-28T01:52:09.859Z,15.25
2019-02-28T01:54:36.255Z,13.93
2019-02-28T01:57:05.479Z,15.23
2019-02-28T01:59:33.978Z,14.75
2019-02-28T02:02:05.972Z,12.90
2019-02-28T02:04:32.892Z,13.70
2019-02-28T02:07:01.346Z,13.70
2019-02-28T02:09:29.855Z,14.47
2019-02-28T02:11:59.116Z,14.07
2019-02-28T02:14:26.814Z,13.88
2019-02-28T02:16:55.232Z,31.73
2019-02-28T02:19:23.958Z,14.33
2019-02-28T02:21:52.747Z,14.80
2019-02-28T02:24:24.305Z,13.13
2019-02-28T02:26:51.781Z,13.18
2019-02-28T02:29:20.542Z,13.08
2019-02-28T02:31:49.044Z,14.00
2019-02-28T02:34:17.536Z,13.03
2019-02-28T02:36:53.060Z,13.13
2019-02-28T02:39:17.610Z,13.32
2019-02-28T02:41:42.959Z,13.43
2019-02-28T02:44:11.429Z,12.93
2019-02-28T02:46:39.921Z,13.60
2019-02-28T02:49:08.387Z,12.90
2019-02-28T02:51:38.555Z,13.00
2019-02-28T02:54:07.013Z,13.78
2019-02-28T02:56:41.907Z,12.73
2019-02-28T02:59:06.424Z,14.10
2019-02-28T03:01:34.902Z,13.60
2019-02-28T03:04:03.781Z,13.68
2019-02-28T03:06:32.281Z,14.40
2019-02-28T03:09:00.736Z,13.38
2019-02-28T03:11:29.526Z,13.88
2019-02-28T03:13:58.003Z,14.07
2019-02-28T03:16:26.508Z,14.07
2019-02-28T03:18:58.175Z,13.65
2019-02-28T03:21:23.366Z,15.25
2019-02-28T03:23:51.825Z,12.80
2019-02-28T03:26:20.332Z,13.35
2019-02-28T03:28:48.879Z,13.78
2019-02-28T03:31:17.288Z,13.10
2019-02-28T03:33:45.851Z,14.00
2019-02-28T03:36:15.921Z,14.50
2019-02-28T03:38:48.632Z,14.18
2019-02-28T03:41:16.771Z,14.23
2019-02-28T03:43:43.855Z,12.82
2019-02-28T03:46:10.374Z,13.05
2019-02-28T03:48:37.864Z,13.78
2019-02-28T03:51:07.489Z,13.20
2019-02-28T03:53:36.664Z,14.15
2019-02-28T03:56:05.167Z,14.47
2019-02-28T03:58:41.670Z,15.00
2019-02-28T04:01:08.949Z,13.62
2019-02-28T04:03:33.731Z,14.60
2019-02-28T04:06:03.827Z,13.80
2019-02-28T04:08:30.837Z,14.43
2019-02-28T04:10:59.109Z,13.90
2019-02-28T04:13:31.597Z,14.73
2019-02-28T04:16:08.529Z,13.85
2019-02-28T04:18:28.944Z,16.27
2019-02-28T04:20:57.704Z,15.55
2019-02-28T04:23:26.134Z,15.93
2019-02-28T04:25:56.962Z,16.25
2019-02-28T04:28:23.137Z,15.95
2019-02-28T04:30:51.809Z,14.80
2019-02-28T04:33:20.306Z,15.83
2019-02-28T04:35:48.719Z,15.90
2019-02-28T04:38:20.482Z,15.85
2019-02-28T04:40:46.071Z,17.90
2019-02-28T04:43:14.590Z,16.62
2019-02-28T04:45:43.074Z,15.45
2019-02-28T04:48:13.894Z,15.13
2019-02-28T04:50:40.598Z,14.75
2019-02-28T04:53:09.193Z,14.47
2019-02-28T04:55:37.982Z,14.23
2019-02-28T04:58:06.177Z,13.78
2019-02-28T05:00:37.838Z,13.58
2019-02-28T05:03:03.934Z,13.78
2019-02-28T05:05:32.454Z,13.88
2019-02-28T05:08:04.715Z,15.05
2019-02-28T05:10:29.421Z,14.30
2019-02-28T05:12:57.877Z,14.65
2019-02-28T05:15:26.375Z,14.40
2019-02-28T05:17:59.119Z,14.50
2019-02-28T05:20:27.635Z,13.75
2019-02-28T05:23:01.715Z,15.15
2019-02-28T05:25:25.275Z,15.65
2019-02-28T05:27:53.770Z,15.03
2019-02-28T05:30:22.560Z,15.87
2019-02-28T05:32:51.094Z,15.08
2019-02-28T05:35:25.539Z,16.87
2019-02-28T05:37:48.623Z,16.32
2019-02-28T05:40:16.919Z,16.32
2019-02-28T05:42:45.372Z,17.17
2019-02-28T05:45:14.828Z,16.27
2019-02-28T05:47:46.173Z,16.23
2019-02-28T05:50:15.180Z,15.28
2019-02-28T05:52:39.587Z,14.83
2019-02-28T05:55:08.389Z,15.83
2019-02-28T05:57:39.329Z,15.75
2019-02-28T06:00:08.245Z,14.68
2019-02-28T06:02:58.233Z,15.78
2019-02-28T06:05:24.828Z,14.95
2019-02-28T06:07:53.715Z,15.03
2019-02-28T06:10:24.778Z,15.65
2019-02-28T06:12:52.038Z,16.62
2019-02-28T06:15:20.527Z,15.98
2019-02-28T06:17:49.013Z,16.77
2019-02-28T06:20:18.494Z,14.85
2019-02-28T06:22:46.989Z,16.45
2019-02-28T06:25:22.623Z,16.42
2019-02-28T06:27:49.150Z,16.97
2019-02-28T06:30:13.444Z,17.95
2019-02-28T06:32:42.553Z,18.60
2019-02-28T06:35:15.963Z,18.20
2019-02-28T06:37:39.506Z,18.90
2019-02-28T06:40:09.784Z,17.45
2019-02-28T06:42:38.625Z,18.32
2019-02-28T06:45:08.143Z,17.67
2019-02-28T06:47:36.600Z,16.93
2019-02-28T06:50:05.644Z,16.40
2019-02-28T06:52:34.175Z,16.87
2019-02-28T06:55:02.660Z,16.73
2019-02-28T06:57:32.974Z,16.65
2019-02-28T06:59:59.618Z,17.23
2019-02-28T07:02:31.170Z,17.12
2019-02-28T07:04:56.918Z,17.62
2019-02-28T07:07:25.759Z,21.50
2019-02-28T07:09:54.263Z,22.22
2019-02-28T07:12:22.766Z,21.17
2019-02-28T07:14:51.214Z,24.98
2019-02-28T07:17:19.992Z,24.05
2019-02-28T07:19:48.400Z,27.77
2019-02-28T07:22:19.676Z,24.43
2019-02-28T07:24:45.668Z,25.70
2019-02-28T07:27:14.127Z,23.32
2019-02-28T07:29:43.647Z,22.45
2019-02-28T07:32:12.114Z,20.50
2019-02-28T07:34:40.606Z,18.67
2019-02-28T07:37:10.396Z,16.60
2019-02-28T07:39:40.467Z,16.48
2019-02-28T07:42:08.161Z,18.10
2019-02-28T07:44:38.042Z,17.73
2019-02-28T07:47:05.138Z,15.53
2019-02-28T07:49:36.726Z,15.48
2019-02-28T07:52:02.405Z,15.35
2019-02-28T07:54:31.410Z,15.50
2019-02-28T07:56:59.681Z,14.63
2019-02-28T07:59:28.220Z,15.60
2019-02-28T08:01:59.915Z,15.45
2019-02-28T08:04:26.083Z,19.27
2019-02-28T08:06:54.940Z,15.63
2019-02-28T08:09:24.296Z,15.65
2019-02-28T08:11:55.723Z,15.98
2019-02-28T08:14:21.417Z,15.25
2019-02-28T08:16:49.981Z,16.02
2019-02-28T08:19:18.871Z,15.30
2019-02-28T08:21:50.442Z,15.72
2019-02-28T08:24:16.854Z,15.28
2019-02-28T08:26:45.340Z,16.20
2019-02-28T08:29:13.838Z,15.63
2019-02-28T08:31:42.303Z,16.25
2019-02-28T08:34:10.800Z,16.07
2019-02-28T08:36:39.975Z,18.07
2019-02-28T08:39:16.330Z,26.52
2019-02-28T08:41:43.490Z,18.80
2019-02-28T08:44:11.987Z,22.25
2019-02-28T08:46:43.450Z,22.42
2019-02-28T08:49:09.664Z,23.38
2019-02-28T08:51:38.151Z,24.95
2019-02-28T08:54:06.605Z,19.25
2019-02-28T08:56:37.093Z,20.30
2019-02-28T08:59:11.824Z,17.82
2019-02-28T09:01:34.120Z,21.33
2019-02-28T09:04:05.052Z,20.00
2019-02-28T09:06:31.363Z,18.07
2019-02-28T09:08:59.946Z,18.98
2019-02-28T09:11:28.240Z,18.75
2019-02-28T09:13:56.712Z,19.67
2019-02-28T09:16:25.203Z,19.00
2019-02-28T09:18:53.661Z,19.10
2019-02-28T09:21:22.183Z,20.15
2019-02-28T09:23:50.631Z,19.62
2019-02-28T09:26:19.427Z,20.82
2019-02-28T09:28:48.301Z,21.55
2019-02-28T09:31:16.401Z,20.75
2019-02-28T09:33:45.264Z,20.88
2019-02-28T09:36:13.780Z,20.72
2019-02-28T09:38:45.026Z,21.30
2019-02-28T09:41:10.732Z,21.37
2019-02-28T09:43:39.909Z,22.17
2019-02-28T09:46:09.128Z,22.32
2019-02-28T09:48:37.301Z,22.10
2019-02-28T09:51:05.364Z,21.85
2019-02-28T09:53:33.825Z,21.93
2019-02-28T09:56:02.323Z,22.42
2019-02-28T09:58:30.793Z,21.80
2019-02-28T10:00:59.676Z,21.85
2019-02-28T10:03:28.187Z,20.77
2019-02-28T10:05:57.033Z,22.07
2019-02-28T10:08:25.559Z,21.95
2019-02-28T10:10:55.860Z,23.05
2019-02-28T10:13:23.923Z,22.42
2019-02-28T10:15:52.409Z,23.70
2019-02-28T10:18:20.921Z,22.02
2019-02-28T10:20:49.363Z,22.48
2019-02-28T10:23:18.483Z,21.90
2019-02-28T10:25:46.776Z,22.52
2019-02-28T10:28:15.540Z,22.13
2019-02-28T10:30:44.004Z,22.25
2019-02-28T10:33:14.321Z,21.63
2019-02-28T10:35:41.173Z,22.35
2019-02-28T10:38:09.681Z,22.67
2019-02-28T10:40:39.156Z,21.77
2019-02-28T10:43:08.679Z,20.65
2019-02-28T10:45:41.131Z,20.97
2019-02-28T10:48:05.937Z,20.08
2019-02-28T10:50:34.459Z,20.10
2019-02-28T10:53:05.381Z,19.65
2019-02-28T10:55:31.392Z,19.12
2019-02-28T10:57:59.857Z,21.10
2019-02-28T11:00:32.828Z,18.92
2019-02-28T11:05:27.712Z,19.90
2019-02-28T11:07:56.228Z,20.70
2019-02-28T11:10:28.846Z,20.85
2019-02-28T11:12:57.109Z,20.37
2019-02-28T11:15:25.121Z,19.50
2019-02-28T11:17:54.138Z,20.00
2019-02-28T11:20:26.177Z,19.20
2019-02-28T11:22:51.119Z,18.12
2019-02-28T11:25:19.843Z,19.27
2019-02-28T11:27:48.273Z,19.92
2019-02-28T11:30:17.219Z,19.02
2019-02-28T11:32:45.667Z,19.40
2019-02-28T11:35:14.778Z,19.35
2019-02-28T11:37:46.009Z,20.08
2019-02-28T11:40:11.802Z,19.45
2019-02-28T11:42:41.085Z,19.12
2019-02-28T11:45:12.348Z,19.42
2019-02-28T11:50:08.511Z,18.90
2019-02-28T11:52:36.979Z,19.15
2019-02-28T11:55:06.348Z,18.50
2019-02-28T11:57:37.764Z,19.20
2019-02-28T12:00:05.136Z,19.55
2019-02-28T12:02:33.580Z,18.55
2019-02-28T12:05:02.041Z,18.92
2019-02-28T12:07:34.594Z,19.00
2019-02-28T12:09:58.995Z,19.30
2019-02-28T12:12:27.513Z,18.65
2019-02-28T12:15:02.781Z,18.65
2019-02-28T12:17:29.326Z,18.77
2019-02-28T12:19:57.211Z,18.20
2019-02-28T12:22:25.629Z,17.67
2019-02-28T12:24:55.276Z,18.73
2019-02-28T12:27:24.436Z,17.75
2019-02-28T12:29:52.500Z,18.87
2019-02-28T12:32:21.247Z,17.45
2019-02-28T12:34:49.744Z,20.85
2019-02-28T12:37:18.261Z,18.32
2019-02-28T12:39:46.789Z,20.15
2019-02-28T12:42:16.104Z,19.25
2019-02-28T12:44:48.841Z,18.32
2019-02-28T12:47:15.548Z,17.95
2019-02-28T12:49:44.009Z,18.05
2019-02-28T12:52:14.560Z,17.75
2019-02-28T12:54:41.995Z,17.90
2019-02-28T12:57:11.560Z,17.17
2019-02-28T12:59:41.829Z,15.60
2019-02-28T13:02:08.659Z,16.52
2019-02-28T13:04:37.065Z,15.78
2019-02-28T13:07:07.480Z,17.93
2019-02-28T13:09:36.361Z,16.07
2019-02-28T13:12:08.052Z,16.50
2019-02-28T13:14:33.341Z,15.90
2019-02-28T13:17:01.797Z,15.55
2019-02-28T13:19:30.335Z,15.85
2019-02-28T13:21:59.047Z,16.30
2019-02-28T13:24:27.569Z,17.17
2019-02-28T13:26:57.047Z,17.32
2019-02-28T13:29:28.801Z,17.10
2019-02-28T13:31:54.016Z,16.52
2019-02-28T13:34:25.090Z,17.25
2019-02-28T13:36:53.782Z,17.42
2019-02-28T13:39:19.900Z,18.80
2019-02-28T13:41:49.061Z,17.85
2019-02-28T13:44:19.610Z,19.10
2019-02-28T13:46:46.058Z,18.98
2019-02-28T13:49:15.621Z,18.30
2019-02-28T13:51:44.401Z,19.85
2019-02-28T13:54:12.906Z,18.98
2019-02-28T13:56:41.682Z,19.17
2019-02-28T13:59:10.477Z,18.70
2019-02-28T14:01:38.977Z,19.32
2019-02-28T14:04:07.447Z,19.45
2019-02-28T14:06:35.964Z,19.00
2019-02-28T14:09:05.685Z,18.73
2019-02-28T14:11:34.704Z,18.23
2019-02-28T14:14:06.273Z,18.90
2019-02-28T14:16:32.720Z,18.27
2019-02-28T14:19:01.479Z,17.40
2019-02-28T14:21:29.987Z,17.40
2019-02-28T14:23:59.120Z,17.15
2019-02-28T14:26:26.965Z,18.27
2019-02-28T14:28:55.422Z,18.57
2019-02-28T14:31:24.974Z,17.25
2019-02-28T14:33:54.425Z,16.65
2019-02-28T14:36:22.080Z,17.12
2019-02-28T14:38:50.869Z,18.75
2019-02-28T14:41:19.571Z,17.52
2019-02-28T14:43:48.035Z,17.60
2019-02-28T14:46:18.281Z,17.70
2019-02-28T14:48:45.304Z,16.95
2019-02-28T14:51:13.800Z,17.40
2019-02-28T14:53:42.262Z,17.15
2019-02-28T14:56:10.758Z,17.73
2019-02-28T14:58:39.229Z,17.80
2019-02-28T15:01:07.729Z,18.25
2019-02-28T15:03:36.835Z,18.85
2019-02-28T15:06:04.687Z,18.50
2019-02-28T15:08:33.154Z,18.62
2019-02-28T15:11:06.493Z,19.15
2019-02-28T15:13:33.515Z,18.63
2019-02-28T15:16:00.566Z,18.45
2019-02-28T15:18:29.003Z,19.23
2019-02-28T15:20:58.448Z,18.35
2019-02-28T15:23:26.906Z,18.45
2019-02-28T15:25:55.459Z,18.42
2019-02-28T15:28:23.964Z,18.10
2019-02-28T15:30:52.566Z,18.90
2019-02-28T15:33:21.589Z,17.85
2019-02-28T15:35:50.623Z,18.77
2019-02-28T15:38:19.852Z,18.75
2019-02-28T15:40:48.631Z,18.50
2019-02-28T15:43:18.410Z,19.05
2019-02-28T15:45:45.950Z,18.55
2019-02-28T15:48:14.394Z,19.30
2019-02-28T15:50:42.889Z,18.75
2019-02-28T15:53:15.116Z,18.25
2019-02-28T15:55:40.427Z,19.50
2019-02-28T15:58:08.932Z,18.45
2019-02-28T16:00:37.795Z,18.32
2019-02-28T16:03:06.366Z,18.55
2019-02-28T16:05:34.925Z,18.75
2019-02-28T16:08:09.041Z,18.05
2019-02-28T16:10:33.316Z,17.70
2019-02-28T16:13:02.095Z,18.15
2019-02-28T16:15:30.536Z,17.45
2019-02-28T16:17:59.308Z,18.00
2019-02-28T16:20:28.706Z,19.55
2019-02-28T16:22:56.994Z,18.50
2019-02-28T16:25:26.734Z,18.55
2019-02-28T16:27:55.290Z,19.17
2019-02-28T16:30:23.773Z,19.27
2019-02-28T16:32:53.279Z,18.17
2019-02-28T16:35:22.190Z,19.23
2019-02-28T16:37:51.984Z,20.02
2019-02-28T16:40:25.930Z,19.98
2019-02-28T16:42:49.318Z,18.98
2019-02-28T16:45:23.675Z,19.25
2019-02-28T16:47:55.665Z,19.77
2019-02-28T16:50:21.432Z,19.48
2019-02-28T16:52:50.687Z,21.15
2019-02-28T16:55:19.235Z,19.35
2019-02-28T16:57:48.070Z,20.45
2019-02-28T17:00:16.297Z,20.02
2019-02-28T17:02:44.781Z,20.10
2019-02-28T17:05:13.343Z,19.75
2019-02-28T17:07:43.613Z,19.80
2019-02-28T17:10:12.710Z,21.10
2019-02-28T17:13:12.435Z,20.72
2019-02-28T17:15:49.376Z,21.55
2019-02-28T17:18:21.643Z,19.95
2019-02-28T17:20:50.855Z,21.68
2019-02-28T17:23:19.401Z,22.40
2019-02-28T17:25:47.985Z,22.05
2019-02-28T17:28:33.634Z,23.12
2019-02-28T17:31:24.317Z,22.75
2019-02-28T17:33:54.290Z,22.07
2019-02-28T17:36:25.311Z,23.42
2019-02-28T17:41:21.489Z,21.87
2019-02-28T17:44:08.094Z,24.35
2019-02-28T17:46:36.574Z,26.50
2019-02-28T17:49:26.386Z,27.10
2019-02-28T17:51:58.544Z,23.60
2019-02-28T17:54:48.404Z,22.13
2019-02-28T17:57:34.045Z,22.07
2019-02-28T18:00:17.116Z,21.33
2019-02-28T18:03:09.810Z,19.80
2019-02-28T18:06:13.341Z,21.12
2019-02-28T18:08:45.698Z,21.95
2019-02-28T18:11:39.692Z,22.30
2019-02-28T18:14:13.880Z,21.97
2019-02-28T18:16:58.590Z,22.87
2019-02-28T18:19:33.733Z,22.65
2019-02-28T18:22:21.329Z,22.62
2019-02-28T18:25:24.623Z,21.17
2019-02-28T18:28:18.809Z,22.05
2019-02-28T18:31:05.461Z,22.13
2019-02-28T18:33:34.157Z,22.10
2019-02-28T18:36:05.094Z,21.75
2019-02-28T18:38:35.748Z,21.20
2019-02-28T18:41:05.624Z,21.82
2019-02-28T18:43:29.703Z,21.40
2019-02-28T18:45:58.263Z,21.93
2019-02-28T18:48:27.752Z,21.90
2019-02-28T18:50:57.253Z,21.00
2019-02-28T18:53:26.117Z,21.20
2019-02-28T18:55:54.531Z,22.15
2019-02-28T18:58:23.130Z,23.00
2019-02-28T19:00:52.329Z,21.10
2019-02-28T19:03:21.081Z,21.62
2019-02-28T19:05:50.618Z,21.87
2019-02-28T19:08:22.127Z,20.43
2019-02-28T19:10:48.905Z,19.50
2019-02-28T19:13:17.393Z,21.05
2019-02-28T19:15:46.276Z,19.48
2019-02-28T19:18:17.386Z,20.00
2019-02-28T19:20:45.782Z,18.17
2019-02-28T19:23:14.289Z,18.50
2019-02-28T19:25:42.719Z,18.80
2019-02-28T19:28:11.247Z,20.05
2019-02-28T19:30:39.960Z,20.75
2019-02-28T19:33:08.506Z,21.80
2019-02-28T19:35:37.065Z,21.42
2019-02-28T19:38:06.159Z,20.32
2019-02-28T19:40:34.989Z,21.20
2019-02-28T19:43:03.456Z,17.02
2019-02-28T19:45:34.159Z,15.35
2019-02-28T19:48:01.533Z,14.45
2019-02-28T19:50:32.328Z,13.08
2019-02-28T19:53:00.794Z,11.57
2019-02-28T19:55:29.221Z,12.85
2019-02-28T19:57:57.728Z,11.05
2019-02-28T20:00:26.386Z,11.30
2019-02-28T20:02:55.306Z,10.00
2019-02-28T20:05:26.621Z,9.78
2019-02-28T20:07:55.180Z,9.33
2019-02-28T20:10:23.933Z,9.50
2019-02-28T20:12:53.666Z,8.83
2019-02-28T20:15:23.653Z,8.63
2019-02-28T20:17:52.145Z,9.03
2019-02-28T20:20:20.615Z,8.68
2019-02-28T20:22:49.086Z,8.93
2019-02-28T20:25:17.566Z,8.68
2019-02-28T20:27:46.235Z,8.75
2019-02-28T20:30:18.050Z,8.98
2019-02-28T20:32:48.461Z,8.48
2019-02-28T20:35:25.911Z,8.43
2019-02-28T20:37:45.681Z,8.65
2019-02-28T20:40:17.024Z,8.55
2019-02-28T20:42:45.533Z,8.70
2019-02-28T20:45:15.364Z,8.10
2019-02-28T20:47:42.595Z,8.63
2019-02-28T20:50:12.745Z,8.98
2019-02-28T20:52:41.450Z,8.58
2019-02-28T20:55:09.971Z,8.80
2019-02-28T20:57:38.729Z,8.03
2019-02-28T21:00:08.696Z,7.55
2019-02-28T21:02:37.137Z,8.03
2019-02-28T21:05:05.670Z,7.40
2019-02-28T21:07:34.395Z,7.00
2019-02-28T21:10:02.921Z,8.53
2019-02-28T21:12:31.368Z,7.92
2019-02-28T21:15:01.331Z,7.70
2019-02-28T21:17:29.789Z,7.22
2019-02-28T21:19:58.467Z,7.30
2019-02-28T21:22:26.945Z,7.55
2019-02-28T21:24:56.010Z,7.95
2019-02-28T21:27:28.894Z,7.40
2019-02-28T21:29:58.735Z,7.17
2019-02-28T21:32:31.513Z,7.72
2019-02-28T21:35:14.647Z,7.65
2019-02-28T21:37:55.877Z,7.92
2019-02-28T21:40:24.914Z,7.12
2019-02-28T21:42:54.108Z,7.35
2019-02-28T21:45:25.656Z,6.67
2019-02-28T21:47:59.811Z,6.92
2019-02-28T21:50:28.636Z,7.42
2019-02-28T21:52:57.198Z,7.62
2019-02-28T21:55:31.105Z,6.97
2019-02-28T21:58:00.566Z,6.42
2019-02-28T22:00:29.045Z,6.45
2019-02-28T22:02:57.514Z,7.12
2019-02-28T22:05:25.982Z,6.72
2019-02-28T22:07:55.487Z,7.10
2019-02-28T22:10:24.967Z,6.97
2019-02-28T22:12:53.399Z,7.25
2019-02-28T22:15:21.846Z,6.65
2019-02-28T22:17:50.352Z,6.55
2019-02-28T22:20:18.811Z,7.25
2019-02-28T22:22:47.310Z,6.60
2019-02-28T22:25:17.102Z,7.37
2019-02-28T22:27:45.609Z,8.10
2019-02-28T22:30:37.302Z,8.23
2019-02-28T22:33:07.786Z,7.15
2019-02-28T22:35:40.038Z,8.00
2019-02-28T22:38:08.778Z,8.88
2019-02-28T22:40:37.276Z,7.55
2019-02-28T22:43:06.059Z,8.10
2019-02-28T22:45:34.546Z,8.28
2019-02-28T22:48:03.039Z,8.80
2019-02-28T22:50:31.509Z,9.95
2019-02-28T22:53:00.008Z,10.15
2019-02-28T22:55:28.465Z,10.05
2019-02-28T22:57:56.979Z,10.18
2019-02-28T23:00:28.394Z,10.63
2019-02-28T23:02:57.280Z,10.82
2019-02-28T23:05:26.363Z,12.53
2019-02-28T23:07:57.373Z,12.80
2019-02-28T23:10:25.811Z,12.58
2019-02-28T23:12:54.299Z,12.07
2019-02-28T23:15:23.069Z,12.63
2019-02-28T23:17:51.547Z,11.70
2019-02-28T23:20:21.080Z,11.48
2019-02-28T23:22:49.535Z,10.70
2019-02-28T23:25:18.030Z,8.93
2019-02-28T23:27:46.493Z,8.70
2019-02-28T23:30:39.446Z,8.93
2019-02-28T23:33:09.907Z,9.00
2019-02-28T23:35:40.835Z,8.78
2019-02-28T23:38:08.767Z,8.18
2019-02-28T23:40:37.278Z,8.08
2019-02-28T23:43:05.741Z,8.18
2019-02-28T23:45:34.235Z,7.95
2019-02-28T23:48:02.733Z,7.90
2019-02-28T23:50:31.487Z,6.90
2019-02-28T23:52:59.987Z,7.10
2019-02-28T23:55:28.459Z,7.05
2019-02-28T23:57:56.951Z,6.87
